createdAt,value
2022-11-05T00:02:30.810Z,97735.47
2022-11-05T00:05:17.660Z,97734.66
2022-11-05T00:08:08.060Z,97738.41
2022-11-05T00:10:38.374Z,97736.50
2022-11-05T00:13:26.199Z,97737.84
2022-11-05T00:16:11.603Z,97744.56
2022-11-05T00:18:39.706Z,97738.38
2022-11-05T00:21:29.403Z,97744.34
2022-11-05T00:24:17.279Z,97753.19
2022-11-05T00:26:48.244Z,97746.22
2022-11-05T00:29:16.132Z,97752.13
2022-11-05T00:31:43.957Z,97755.63
2022-11-05T00:34:11.783Z,97764.75
2022-11-05T00:36:41.150Z,97755.63
2022-11-05T00:39:09.545Z,97761.56
2022-11-05T00:41:37.424Z,97764.25
2022-11-05T00:44:22.565Z,97760.44
2022-11-05T00:47:10.342Z,97770.63
2022-11-05T00:49:37.236Z,97767.63
2022-11-05T00:52:20.364Z,97771.25
2022-11-05T00:54:48.260Z,97780.00
2022-11-05T00:57:16.022Z,97779.69
2022-11-05T00:59:43.832Z,97783.75
2022-11-05T01:02:11.678Z,97787.75
2022-11-05T01:04:39.664Z,97786.69
2022-11-05T01:07:08.923Z,97797.75
2022-11-05T01:09:36.746Z,97793.38
2022-11-05T01:12:04.887Z,97796.06
2022-11-05T01:14:32.775Z,97805.50
2022-11-05T01:17:00.644Z,97800.13
2022-11-05T01:19:29.480Z,97801.50
2022-11-05T01:21:57.353Z,97805.44
2022-11-05T01:24:26.652Z,97807.31
2022-11-05T01:26:55.171Z,97808.69
2022-11-05T01:29:23.611Z,97819.25
2022-11-05T01:31:51.477Z,97814.63
2022-11-05T01:34:19.275Z,97813.81
2022-11-05T01:36:47.053Z,97819.63
2022-11-05T01:39:15.151Z,97822.81
2022-11-05T01:41:44.344Z,97818.06
2022-11-05T01:44:47.079Z,97829.53
2022-11-05T01:47:26.183Z,97818.25
2022-11-05T01:49:54.910Z,97819.31
2022-11-05T01:52:24.197Z,97827.84
2022-11-05T01:54:52.243Z,97829.16
2022-11-05T01:57:21.737Z,97827.03
2022-11-05T01:59:53.719Z,97828.50
2022-11-05T02:02:22.062Z,97832.97
2022-11-05T02:04:54.746Z,97828.72
2022-11-05T02:07:24.172Z,97832.88
2022-11-05T02:09:56.943Z,97835.91
2022-11-05T02:12:26.707Z,97845.25
2022-11-05T02:14:54.539Z,97845.25
2022-11-05T02:17:34.167Z,97844.19
2022-11-05T02:20:24.255Z,97834.03
2022-11-05T02:23:13.645Z,97846.06
2022-11-05T02:26:11.607Z,97849.81
2022-11-05T02:29:08.470Z,97847.13
2022-11-05T02:31:44.222Z,97844.28
2022-11-05T02:34:23.289Z,97852.34
2022-11-05T02:36:59.360Z,97851.19
2022-11-05T02:39:39.135Z,97851.19
2022-11-05T02:42:16.799Z,97855.94
2022-11-05T02:44:54.605Z,97852.69
2022-11-05T02:47:33.723Z,97854.56
2022-11-05T02:50:12.107Z,97862.31
2022-11-05T02:52:50.508Z,97858.56
2022-11-05T02:55:27.148Z,97867.81
2022-11-05T02:57:55.065Z,97864.50
2022-11-05T03:00:42.162Z,97859.63
2022-11-05T03:03:19.847Z,97865.22
2022-11-05T03:05:59.798Z,97862.38
2022-11-05T03:08:42.316Z,97862.06
2022-11-05T03:11:16.458Z,97862.78
2022-11-05T03:13:54.677Z,97857.19
2022-11-05T03:16:32.785Z,97863.34
2022-11-05T03:19:11.175Z,97858.22
2022-11-05T03:21:47.415Z,97860.59
2022-11-05T03:24:20.077Z,97872.41
2022-11-05T03:26:53.087Z,97865.78
2022-11-05T03:29:24.125Z,97868.41
2022-11-05T03:31:56.531Z,97873.78
2022-11-05T03:34:32.455Z,97877.53
2022-11-05T03:37:03.661Z,97873.53
2022-11-05T03:39:36.336Z,97880.03
2022-11-05T03:42:07.641Z,97878.09
2022-11-05T03:44:40.154Z,97883.72
2022-11-05T03:47:12.926Z,97896.91
2022-11-05T03:49:48.545Z,97895.28
2022-11-05T03:52:19.677Z,97897.22
2022-11-05T03:54:48.170Z,97899.59
2022-11-05T03:57:22.017Z,97903.09
2022-11-05T03:59:51.335Z,97901.78
2022-11-05T04:02:21.106Z,97908.47
2022-11-05T04:04:50.429Z,97910.91
2022-11-05T04:07:35.938Z,97903.66
2022-11-05T04:10:35.577Z,97904.78
2022-11-05T04:13:20.968Z,97910.66
2022-11-05T04:16:06.475Z,97920.91
2022-11-05T04:18:34.284Z,97913.59
2022-11-05T04:21:21.259Z,97916.28
2022-11-05T04:24:06.504Z,97919.84
2022-11-05T04:26:34.458Z,97927.41
2022-11-05T04:29:19.977Z,97924.81
2022-11-05T04:31:47.838Z,97927.50
2022-11-05T04:34:16.342Z,97937.84
2022-11-05T04:36:46.217Z,97938.75
2022-11-05T04:39:14.068Z,97938.91
2022-11-05T04:41:42.015Z,97943.38
2022-11-05T04:44:09.981Z,97933.44
2022-11-05T04:46:38.828Z,97934.19
2022-11-05T04:49:06.618Z,97942.00
2022-11-05T04:51:34.474Z,97948.19
2022-11-05T04:54:03.734Z,97950.38
2022-11-05T04:56:31.615Z,97951.19
2022-11-05T04:58:59.756Z,97951.78
2022-11-05T05:01:27.708Z,97958.75
2022-11-05T05:03:56.211Z,97953.97
2022-11-05T05:06:24.141Z,97954.22
2022-11-05T05:08:52.604Z,97960.41
2022-11-05T05:11:23.202Z,97964.13
2022-11-05T05:13:51.571Z,97964.63
2022-11-05T05:16:22.217Z,97969.19
2022-11-05T05:18:50.839Z,97962.28
2022-11-05T05:21:37.785Z,97973.50
2022-11-05T05:24:08.690Z,97970.25
2022-11-05T05:26:38.655Z,97975.38
2022-11-05T05:29:07.119Z,97971.53
2022-11-05T05:31:35.450Z,97981.72
2022-11-05T05:34:03.723Z,97983.09
2022-11-05T05:36:32.300Z,97984.25
2022-11-05T05:39:00.223Z,97988.56
2022-11-05T05:41:28.118Z,97988.81
2022-11-05T05:43:57.321Z,97997.69
2022-11-05T05:46:25.180Z,97990.03
2022-11-05T05:48:53.615Z,97998.06
2022-11-05T05:51:21.640Z,97995.88
2022-11-05T05:53:50.156Z,97999.03
2022-11-05T05:56:20.604Z,97995.31
2022-11-05T05:58:48.899Z,98007.34
2022-11-05T06:01:20.101Z,98008.50
2022-11-05T06:03:49.200Z,98006.06
2022-11-05T06:06:20.964Z,98006.63
2022-11-05T06:08:49.621Z,98013.13
2022-11-05T06:11:17.792Z,98015.59
2022-11-05T06:13:45.725Z,98023.88
2022-11-05T06:16:13.624Z,98016.06
2022-11-05T06:18:42.839Z,98020.38
2022-11-05T06:21:12.884Z,98028.78
2022-11-05T06:23:42.601Z,98036.00
2022-11-05T06:26:12.564Z,98048.06
2022-11-05T06:28:42.101Z,98050.41
2022-11-05T06:31:10.293Z,98056.84
2022-11-05T06:33:38.487Z,98056.50
2022-11-05T06:36:09.274Z,98055.13
2022-11-05T06:38:38.251Z,98058.94
2022-11-05T06:41:10.247Z,98060.50
2022-11-05T06:43:38.734Z,98062.59
2022-11-05T06:46:06.747Z,98063.50
2022-11-05T06:48:34.901Z,98077.91
2022-11-05T06:51:02.768Z,98078.63
2022-11-05T06:53:32.559Z,98080.59
2022-11-05T06:56:03.315Z,98089.94
2022-11-05T06:58:32.124Z,98088.88
2022-11-05T07:01:03.585Z,98090.50
2022-11-05T07:03:31.992Z,98094.59
2022-11-05T07:06:01.347Z,98096.47
2022-11-05T07:08:33.551Z,98111.75
2022-11-05T07:11:01.618Z,98107.44
2022-11-05T07:13:29.452Z,98113.25
2022-11-05T07:15:57.368Z,98122.13
2022-11-05T07:18:25.663Z,98127.50
2022-11-05T07:20:53.536Z,98128.31
2022-11-05T07:23:21.498Z,98134.25
2022-11-05T07:25:50.765Z,98146.16
2022-11-05T07:28:19.059Z,98151.06
2022-11-05T07:30:48.262Z,98149.75
2022-11-05T07:33:16.175Z,98155.47
2022-11-05T07:35:44.028Z,98158.97
2022-11-05T07:38:12.342Z,98158.41
2022-11-05T07:40:40.218Z,98164.69
2022-11-05T07:43:16.956Z,98169.72
2022-11-05T07:45:46.702Z,98169.47
2022-11-05T07:48:14.494Z,98167.38
2022-11-05T07:50:42.364Z,98168.41
2022-11-05T07:53:13.090Z,98174.56
2022-11-05T07:55:43.893Z,98178.88
2022-11-05T07:58:13.459Z,98172.53
2022-11-05T08:00:41.472Z,98174.41
2022-11-05T08:03:13.667Z,98179.16
2022-11-05T08:05:44.714Z,98171.41
2022-11-05T08:08:14.016Z,98168.72
2022-11-05T08:10:42.638Z,98172.22
2022-11-05T08:13:11.966Z,98179.00
2022-11-05T08:15:42.636Z,98185.19
2022-11-05T08:18:13.235Z,98187.22
2022-11-05T08:20:43.829Z,98188.84
2022-11-05T08:23:12.688Z,98195.75
2022-11-05T08:25:40.872Z,98198.44
2022-11-05T08:28:11.458Z,98200.69
2022-11-05T08:30:39.475Z,98204.06
2022-11-05T08:33:11.693Z,98203.38
2022-11-05T08:35:40.374Z,98204.19
2022-11-05T08:38:09.462Z,98209.00
2022-11-05T08:40:38.581Z,98209.09
2022-11-05T08:43:08.200Z,98212.25
2022-11-05T08:45:38.492Z,98209.09
2022-11-05T08:48:10.147Z,98217.41
2022-11-05T08:50:38.631Z,98217.81
2022-11-05T08:53:07.130Z,98216.75
2022-11-05T08:55:35.375Z,98227.56
2022-11-05T08:58:04.765Z,98229.38
2022-11-05T09:00:37.014Z,98225.88
2022-11-05T09:03:06.455Z,98236.16
2022-11-05T09:05:38.175Z,98232.38
2022-11-05T09:08:24.375Z,98238.84
2022-11-05T09:10:52.446Z,98236.16
2022-11-05T09:13:22.193Z,98241.91
2022-11-05T09:15:51.469Z,98241.22
2022-11-05T09:18:20.701Z,98247.53
2022-11-05T09:20:54.062Z,98252.22
2022-11-05T09:23:21.869Z,98254.31
2022-11-05T09:25:52.453Z,98259.13
2022-11-05T09:28:22.760Z,98256.56
2022-11-05T09:30:54.763Z,98257.38
2022-11-05T09:33:24.582Z,98255.63
2022-11-05T09:35:54.312Z,98267.75
2022-11-05T09:38:34.636Z,98263.91
2022-11-05T09:41:06.063Z,98271.63
2022-11-05T09:44:06.397Z,98270.47
2022-11-05T09:47:04.376Z,98270.34
2022-11-05T09:53:09.073Z,98272.31
2022-11-05T09:55:49.600Z,98275.00
2022-11-05T09:59:31.676Z,98274.53
2022-11-05T10:02:10.253Z,98276.16
2022-11-05T10:05:10.366Z,98273.47
2022-11-05T10:11:39.900Z,98287.38
2022-11-05T10:14:51.578Z,98295.44
2022-11-05T10:17:54.039Z,98298.13
2022-11-05T10:20:32.611Z,98303.84
2022-11-05T10:23:03.464Z,98307.13
2022-11-05T10:25:39.792Z,98305.94
2022-11-05T10:28:09.075Z,98311.09
2022-11-05T10:30:38.540Z,98317.50
2022-11-05T10:33:23.027Z,98310.03
2022-11-05T10:35:56.360Z,98313.97
2022-11-05T10:38:24.185Z,98322.50
2022-11-05T10:41:01.587Z,98331.50
2022-11-05T10:43:36.118Z,98333.59
2022-11-05T10:46:20.332Z,98326.00
2022-11-05T10:49:01.363Z,98328.13
2022-11-05T10:51:44.579Z,98330.47
2022-11-05T10:54:19.613Z,98341.78
2022-11-05T10:56:47.832Z,98338.63
2022-11-05T10:59:24.229Z,98334.91
2022-11-05T11:02:01.006Z,98342.38
2022-11-05T11:04:36.497Z,98338.06
2022-11-05T11:07:06.152Z,98338.63
2022-11-05T11:09:37.796Z,98346.22
2022-11-05T11:12:09.272Z,98337.59
2022-11-05T11:14:37.228Z,98342.03
2022-11-05T11:17:27.904Z,98345.06
2022-11-05T11:20:20.545Z,98343.44
2022-11-05T11:23:00.909Z,98336.19
2022-11-05T11:25:30.561Z,98338.06
2022-11-05T11:28:04.300Z,98343.66
2022-11-05T11:30:32.434Z,98343.91
2022-11-05T11:33:07.547Z,98342.25
2022-11-05T11:35:38.962Z,98349.28
2022-11-05T11:38:15.102Z,98352.19
2022-11-05T11:40:45.376Z,98351.38
2022-11-05T11:43:25.661Z,98350.53
2022-11-05T11:46:04.840Z,98361.06
2022-11-05T11:48:37.363Z,98356.41
2022-11-05T11:51:21.120Z,98351.97
2022-11-05T11:53:50.437Z,98363.75
2022-11-05T11:56:23.320Z,98360.25
2022-11-05T11:58:53.233Z,98362.13
2022-11-05T12:01:52.037Z,98367.63
2022-11-05T12:04:45.950Z,98358.03
2022-11-05T12:07:38.607Z,98362.13
2022-11-05T12:10:28.391Z,98364.22
2022-11-05T12:13:21.590Z,98352.66
2022-11-05T12:15:52.940Z,98351.59
2022-11-05T12:18:31.870Z,98345.75
2022-11-05T12:21:09.039Z,98344.69
2022-11-05T12:23:54.129Z,98343.84
2022-11-05T12:26:30.790Z,98336.47
2022-11-05T12:29:21.167Z,98343.09
2022-11-05T12:32:00.772Z,98347.28
2022-11-05T12:34:43.171Z,98341.19
2022-11-05T12:37:24.831Z,98335.81
2022-11-05T12:40:08.580Z,98343.41
2022-11-05T12:42:52.985Z,98344.94
2022-11-05T12:45:34.476Z,98342.84
2022-11-05T12:48:24.683Z,98345.19
2022-11-05T12:51:02.908Z,98350.31
2022-11-05T12:53:54.821Z,98351.28
2022-11-05T12:56:32.032Z,98349.78
2022-11-05T12:59:04.474Z,98348.09
2022-11-05T13:01:36.643Z,98356.41
2022-11-05T13:04:12.355Z,98357.22
2022-11-05T13:06:43.654Z,98355.59
2022-11-05T13:09:19.213Z,98353.81
2022-11-05T13:11:52.884Z,98353.69
2022-11-05T13:14:38.387Z,98347.97
2022-11-05T13:17:44.303Z,98353.13
2022-11-05T13:20:47.544Z,98355.31
2022-11-05T13:23:46.351Z,98356.16
2022-11-05T13:26:30.331Z,98350.53
2022-11-05T13:29:44.650Z,98354.94
2022-11-05T13:36:20.668Z,98361.53
2022-11-05T13:38:59.969Z,98364.31
2022-11-05T13:41:46.716Z,98359.88
2022-11-05T13:44:45.223Z,98358.00
2022-11-05T13:47:33.843Z,98363.16
2022-11-05T13:50:33.441Z,98367.09
2022-11-05T13:53:32.943Z,98366.13
2022-11-05T13:56:24.264Z,98370.94
2022-11-05T13:59:37.742Z,98373.19
2022-11-05T14:02:14.677Z,98371.22
2022-11-05T14:04:47.740Z,98366.09
2022-11-05T14:07:20.809Z,98365.13
2022-11-05T14:10:05.775Z,98364.78
2022-11-05T14:12:39.200Z,98365.25
2022-11-05T14:15:18.248Z,98370.66
2022-11-05T14:17:58.051Z,98369.94
2022-11-05T14:20:45.903Z,98376.38
2022-11-05T14:23:39.878Z,98372.28
2022-11-05T14:26:21.003Z,98374.50
2022-11-05T14:28:51.659Z,98376.25
2022-11-05T14:31:54.605Z,98381.16
2022-11-05T14:34:25.036Z,98376.25
2022-11-05T14:37:23.291Z,98386.44
2022-11-05T14:39:52.136Z,98389.50
2022-11-05T14:42:26.143Z,98386.00
2022-11-05T14:45:02.108Z,98381.66
2022-11-05T14:47:34.595Z,98382.63
2022-11-05T14:50:09.514Z,98383.91
2022-11-05T14:52:39.203Z,98383.78
2022-11-05T14:55:08.438Z,98387.31
2022-11-05T14:58:03.189Z,98390.22
2022-11-05T15:00:47.192Z,98397.13
2022-11-05T15:03:47.938Z,98396.06
2022-11-05T15:06:26.735Z,98400.63
2022-11-05T15:09:20.335Z,98404.38
2022-11-05T15:12:09.623Z,98401.44
2022-11-05T15:14:42.476Z,98395.97
2022-11-05T15:17:19.179Z,98400.28
2022-11-05T15:19:48.199Z,98391.41
2022-11-05T15:22:29.422Z,98400.63
2022-11-05T15:24:57.862Z,98400.97
2022-11-05T15:27:45.043Z,98404.13
2022-11-05T15:30:17.623Z,98405.06
2022-11-05T15:32:45.785Z,98397.47
2022-11-05T15:35:31.513Z,98400.97
2022-11-05T15:38:16.510Z,98408.56
2022-11-05T15:40:45.085Z,98410.91
2022-11-05T15:43:19.662Z,98402.28
2022-11-05T15:46:05.525Z,98404.25
2022-11-05T15:48:34.573Z,98409.53
2022-11-05T15:51:02.816Z,98406.25
2022-11-05T15:53:51.527Z,98410.47
2022-11-05T15:56:28.998Z,98406.13
2022-11-05T15:59:02.908Z,98411.16
2022-11-05T16:01:34.401Z,98408.34
2022-11-05T16:04:09.804Z,98418.88
2022-11-05T16:06:40.315Z,98414.44
2022-11-05T16:09:22.562Z,98417.34
2022-11-05T16:11:54.614Z,98411.38
2022-11-05T16:14:22.540Z,98410.03
2022-11-05T16:16:50.413Z,98413.53
2022-11-05T16:19:40.086Z,98416.78
2022-11-05T16:22:09.112Z,98426.69
2022-11-05T16:24:38.400Z,98425.88
2022-11-05T16:27:06.777Z,98424.84
2022-11-05T16:29:36.936Z,98429.38
2022-11-05T16:32:15.153Z,98438.28
2022-11-05T16:34:51.228Z,98430.13
2022-11-05T16:37:23.290Z,98431.16
2022-11-05T16:39:53.008Z,98436.09
2022-11-05T16:42:41.627Z,98434.44
2022-11-05T16:45:13.692Z,98437.59
2022-11-05T16:47:42.311Z,98450.00
2022-11-05T16:50:23.012Z,98453.72
2022-11-05T16:52:51.668Z,98455.00
2022-11-05T16:55:21.271Z,98461.78
2022-11-05T16:57:52.083Z,98455.59
2022-11-05T17:00:21.613Z,98460.16
2022-11-05T17:02:49.752Z,98458.75
2022-11-05T17:05:22.819Z,98462.84
2022-11-05T17:07:50.727Z,98469.13
2022-11-05T17:10:20.931Z,98466.91
2022-11-05T17:12:49.648Z,98460.38
2022-11-05T17:15:24.005Z,98462.47
2022-11-05T17:17:53.374Z,98459.19
2022-11-05T17:20:28.784Z,98461.88
2022-11-05T17:22:57.619Z,98464.34
2022-11-05T17:25:38.490Z,98468.06
2022-11-05T17:28:12.577Z,98472.50
2022-11-05T17:30:58.419Z,98477.28
2022-11-05T17:33:59.387Z,98477.38
2022-11-05T17:36:32.893Z,98485.22
2022-11-05T17:39:05.570Z,98481.34
2022-11-05T17:41:39.169Z,98480.75
2022-11-05T17:44:25.153Z,98485.53
2022-11-05T17:46:52.954Z,98489.88
2022-11-05T17:49:21.060Z,98483.56
2022-11-05T17:51:48.946Z,98491.25
2022-11-05T17:54:17.531Z,98490.28
2022-11-05T17:56:46.830Z,98493.88
2022-11-05T17:59:14.895Z,98500.16
2022-11-05T18:01:48.488Z,98506.81
2022-11-05T18:04:16.608Z,98505.66
2022-11-05T18:06:45.633Z,98510.88
2022-11-05T18:09:14.008Z,98513.66
2022-11-05T18:11:43.981Z,98515.25
2022-11-05T18:14:21.302Z,98525.00
2022-11-05T18:16:52.226Z,98525.22
2022-11-05T18:19:20.239Z,98522.41
2022-11-05T18:21:48.110Z,98524.94
2022-11-05T18:24:18.109Z,98532.38
2022-11-05T18:26:46.215Z,98531.19
2022-11-05T18:29:15.465Z,98536.56
2022-11-05T18:31:52.851Z,98534.53
2022-11-05T18:34:20.896Z,98536.84
2022-11-05T18:36:53.509Z,98534.41
2022-11-05T18:39:25.159Z,98536.06
2022-11-05T18:41:55.300Z,98521.69
2022-11-05T18:44:28.944Z,98522.88
2022-11-05T18:47:04.120Z,98517.09
2022-11-05T18:49:36.235Z,98517.81
2022-11-05T18:52:04.472Z,98514.31
2022-11-05T18:54:32.804Z,98520.13
2022-11-05T18:57:00.704Z,98510.44
2022-11-05T18:59:38.758Z,98515.03
2022-11-05T19:02:08.560Z,98521.72
2022-11-05T19:04:37.393Z,98517.47
2022-11-05T19:07:06.083Z,98521.22
2022-11-05T19:09:34.836Z,98520.69
2022-11-05T19:12:03.357Z,98522.00
2022-11-05T19:14:32.757Z,98518.34
2022-11-05T19:17:01.405Z,98515.28
2022-11-05T19:19:29.384Z,98523.31
2022-11-05T19:21:57.612Z,98518.63
2022-11-05T19:24:28.591Z,98520.03
2022-11-05T19:26:59.384Z,98523.31
2022-11-05T19:29:27.435Z,98521.03
2022-11-05T19:31:57.661Z,98513.00
2022-11-05T19:34:25.691Z,98520.00
2022-11-05T19:36:53.686Z,98511.72
2022-11-05T19:39:23.426Z,98516.03
2022-11-05T19:41:51.319Z,98517.44
2022-11-05T19:44:19.239Z,98522.00
2022-11-05T19:46:47.385Z,98518.13
2022-11-05T19:49:16.658Z,98523.09
2022-11-05T19:51:44.890Z,98522.50
2022-11-05T19:54:12.967Z,98522.75
2022-11-05T19:56:40.956Z,98518.00
2022-11-05T19:59:13.071Z,98505.97
2022-11-05T20:01:41.169Z,98513.19
2022-11-05T20:04:12.016Z,98503.63
2022-11-05T20:06:45.386Z,98516.59
2022-11-05T20:09:21.647Z,98512.91
2022-11-05T20:11:54.363Z,98506.50
2022-11-05T20:14:23.087Z,98519.50
2022-11-05T20:16:51.762Z,98531.66
2022-11-05T20:19:22.518Z,98535.16
2022-11-05T20:21:52.598Z,98540.50
2022-11-05T20:24:25.253Z,98544.44
2022-11-05T20:27:01.051Z,98551.25
2022-11-05T20:29:39.919Z,98553.50
2022-11-05T20:32:08.025Z,98552.47
2022-11-05T20:34:36.144Z,98551.22
2022-11-05T20:37:07.806Z,98549.34
2022-11-05T20:39:35.743Z,98551.00
2022-11-05T20:42:03.863Z,98551.22
2022-11-05T20:44:31.961Z,98549.78
2022-11-05T20:46:59.762Z,98542.78
2022-11-05T20:49:27.585Z,98540.13
2022-11-05T20:51:56.007Z,98550.44
2022-11-05T20:54:25.466Z,98556.41
2022-11-05T20:56:53.384Z,98550.03
2022-11-05T20:59:21.468Z,98565.50
2022-11-05T21:01:51.727Z,98554.22
2022-11-05T21:04:20.800Z,98545.41
2022-11-05T21:06:48.846Z,98546.88
2022-11-05T21:09:16.664Z,98551.59
2022-11-05T21:12:03.305Z,98559.59
2022-11-05T21:14:33.085Z,98553.41
2022-11-05T21:17:01.193Z,98540.44
2022-11-05T21:19:29.540Z,98544.16
2022-11-05T21:21:57.398Z,98544.16
2022-11-05T21:24:26.815Z,98549.91
2022-11-05T21:26:56.223Z,98540.25
2022-11-05T21:29:24.260Z,98538.84
2022-11-05T21:31:52.322Z,98546.44
2022-11-05T21:34:23.166Z,98538.22
2022-11-05T21:36:51.542Z,98540.88
2022-11-05T21:39:19.638Z,98542.13
2022-11-05T21:41:47.510Z,98541.72
2022-11-05T21:44:16.757Z,98538.03
2022-11-05T21:46:45.706Z,98533.09
2022-11-05T21:49:14.539Z,98532.88
2022-11-05T21:52:01.045Z,98532.91
2022-11-05T21:54:47.066Z,98539.69
2022-11-05T21:57:34.120Z,98534.72
2022-11-05T22:00:05.957Z,98533.72
2022-11-05T22:02:33.947Z,98537.44
2022-11-05T22:05:04.177Z,98538.66
2022-11-05T22:07:34.231Z,98539.91
2022-11-05T22:10:03.253Z,98540.94
2022-11-05T22:12:32.356Z,98536.81
2022-11-05T22:15:00.499Z,98529.81
2022-11-05T22:17:29.840Z,98530.63
2022-11-05T22:19:57.725Z,98537.41
2022-11-05T22:22:25.593Z,98536.78
2022-11-05T22:24:53.793Z,98532.88
2022-11-05T22:27:23.041Z,98532.69
2022-11-05T22:29:51.288Z,98541.31
2022-11-05T22:32:19.258Z,98531.88
2022-11-05T22:34:48.876Z,98530.22
2022-11-05T22:37:16.850Z,98527.75
2022-11-05T22:39:44.862Z,98531.88
2022-11-05T22:42:12.833Z,98531.25
2022-11-05T22:44:40.829Z,98532.91
2022-11-05T22:47:09.150Z,98526.53
2022-11-05T22:49:37.009Z,98528.38
2022-11-05T22:52:06.737Z,98524.88
2022-11-05T22:54:39.052Z,98516.88
2022-11-05T22:57:07.680Z,98518.94
2022-11-05T22:59:35.526Z,98523.28
2022-11-05T23:02:09.221Z,98524.91
2022-11-05T23:04:38.254Z,98519.56
2022-11-05T23:07:27.879Z,98515.06
2022-11-05T23:10:13.431Z,98519.38
2022-11-05T23:12:43.191Z,98512.34
2022-11-05T23:15:32.466Z,98517.09
2022-11-05T23:18:17.892Z,98516.50
2022-11-05T23:21:03.067Z,98516.50
2022-11-05T23:23:49.850Z,98507.66
2022-11-05T23:26:49.823Z,98506.25
2022-11-05T23:29:17.658Z,98506.28
2022-11-05T23:32:02.958Z,98499.06
2022-11-05T23:34:31.774Z,98500.75
2022-11-05T23:37:17.252Z,98499.31
2022-11-05T23:39:46.736Z,98501.97
2022-11-05T23:42:32.035Z,98504.03
2022-11-05T23:45:17.422Z,98505.06
2022-11-05T23:48:02.934Z,98504.84
2022-11-05T23:50:35.594Z,98495.84
2022-11-05T23:53:07.999Z,98489.63
2022-11-05T23:55:37.447Z,98489.84
2022-11-05T23:58:05.347Z,98486.34
